sensor_id;sensor_type;location;lat;lon;timestamp;temperature;humidity
49829;DHT22;35723;51.194;5.112;2023-12-07T00:00:08;3.70;99.90
49829;DHT22;35723;51.194;5.112;2023-12-07T00:02:34;3.70;99.90
49829;DHT22;35723;51.194;5.112;2023-12-07T00:04:59;3.70;99.90
49829;DHT22;35723;51.194;5.112;2023-12-07T00:07:25;3.70;99.90
49829;DHT22;35723;51.194;5.112;2023-12-07T00:09:51;3.60;99.90
49829;DHT22;35723;51.194;5.112;2023-12-07T00:12:17;3.60;99.90
49829;DHT22;35723;51.194;5.112;2023-12-07T00:14:42;3.70;99.90
49829;DHT22;35723;51.194;5.112;2023-12-07T00:17:08;3.70;99.90
49829;DHT22;35723;51.194;5.112;2023-12-07T00:19:34;3.70;99.90
49829;DHT22;35723;51.194;5.112;2023-12-07T00:21:59;3.80;99.90
49829;DHT22;35723;51.194;5.112;2023-12-07T00:24:25;3.80;99.90
49829;DHT22;35723;51.194;5.112;2023-12-07T00:26:50;3.70;99.90
49829;DHT22;35723;51.194;5.112;2023-12-07T00:29:16;3.80;99.90
49829;DHT22;35723;51.194;5.112;2023-12-07T00:31:42;3.80;99.90
49829;DHT22;35723;51.194;5.112;2023-12-07T00:34:07;3.90;99.90
49829;DHT22;35723;51.194;5.112;2023-12-07T00:36:35;3.90;99.90
49829;DHT22;35723;51.194;5.112;2023-12-07T00:39:01;4.00;99.90
49829;DHT22;35723;51.194;5.112;2023-12-07T00:41:26;4.00;99.90
49829;DHT22;35723;51.194;5.112;2023-12-07T00:43:52;4.00;99.90
49829;DHT22;35723;51.194;5.112;2023-12-07T00:46:17;4.00;99.90
49829;DHT22;35723;51.194;5.112;2023-12-07T00:48:43;4.00;99.90
49829;DHT22;35723;51.194;5.112;2023-12-07T00:51:09;4.00;99.90
49829;DHT22;35723;51.194;5.112;2023-12-07T00:53:35;4.10;99.90
49829;DHT22;35723;51.194;5.112;2023-12-07T00:56:03;4.30;99.90
49829;DHT22;35723;51.194;5.112;2023-12-07T00:58:29;4.20;99.90
49829;DHT22;35723;51.194;5.112;2023-12-07T01:00:55;4.20;99.90
49829;DHT22;35723;51.194;5.112;2023-12-07T01:03:20;4.20;99.90
49829;DHT22;35723;51.194;5.112;2023-12-07T01:05:47;4.20;99.90
49829;DHT22;35723;51.194;5.112;2023-12-07T01:08:13;4.30;99.90
49829;DHT22;35723;51.194;5.112;2023-12-07T01:10:38;4.40;99.90
49829;DHT22;35723;51.194;5.112;2023-12-07T01:13:04;4.30;99.90
49829;DHT22;35723;51.194;5.112;2023-12-07T01:15:30;4.20;99.90
49829;DHT22;35723;51.194;5.112;2023-12-07T01:17:55;4.30;99.90
49829;DHT22;35723;51.194;5.112;2023-12-07T01:20:21;4.10;99.90
49829;DHT22;35723;51.194;5.112;2023-12-07T01:22:46;4.10;99.90
49829;DHT22;35723;51.194;5.112;2023-12-07T01:25:12;4.10;99.90
49829;DHT22;35723;51.194;5.112;2023-12-07T01:27:42;4.20;99.90
49829;DHT22;35723;51.194;5.112;2023-12-07T01:30:08;4.20;99.90
49829;DHT22;35723;51.194;5.112;2023-12-07T01:32:33;4.20;99.90
49829;DHT22;35723;51.194;5.112;2023-12-07T01:34:59;4.00;99.90
49829;DHT22;35723;51.194;5.112;2023-12-07T01:37:25;4.00;99.90
49829;DHT22;35723;51.194;5.112;2023-12-07T01:39:52;4.10;99.90
49829;DHT22;35723;51.194;5.112;2023-12-07T01:42:18;4.10;99.90
49829;DHT22;35723;51.194;5.112;2023-12-07T01:44:44;4.20;99.90
49829;DHT22;35723;51.194;5.112;2023-12-07T01:47:09;4.10;99.90
49829;DHT22;35723;51.194;5.112;2023-12-07T01:49:36;4.10;99.90
49829;DHT22;35723;51.194;5.112;2023-12-07T01:52:02;4.20;99.90
49829;DHT22;35723;51.194;5.112;2023-12-07T01:54:29;4.10;99.90
49829;DHT22;35723;51.194;5.112;2023-12-07T01:56:55;4.10;99.90
49829;DHT22;35723;51.194;5.112;2023-12-07T01:59:21;4.10;99.90
49829;DHT22;35723;51.194;5.112;2023-12-07T02:01:47;4.10;99.90
49829;DHT22;35723;51.194;5.112;2023-12-07T02:04:13;4.10;99.90
49829;DHT22;35723;51.194;5.112;2023-12-07T02:06:39;4.20;99.90
49829;DHT22;35723;51.194;5.112;2023-12-07T02:09:05;4.20;99.90
49829;DHT22;35723;51.194;5.112;2023-12-07T02:11:31;4.10;99.90
49829;DHT22;35723;51.194;5.112;2023-12-07T02:13:56;4.20;99.90
49829;DHT22;35723;51.194;5.112;2023-12-07T02:21:59;4.20;99.90
49829;DHT22;35723;51.194;5.112;2023-12-07T02:24:33;4.10;99.90
49829;DHT22;35723;51.194;5.112;2023-12-07T02:26:59;4.00;99.90
49829;DHT22;35723;51.194;5.112;2023-12-07T02:29:24;4.10;99.90
49829;DHT22;35723;51.194;5.112;2023-12-07T02:31:50;4.10;99.90
49829;DHT22;35723;51.194;5.112;2023-12-07T02:34:16;4.00;99.90
49829;DHT22;35723;51.194;5.112;2023-12-07T02:36:43;4.10;99.90
49829;DHT22;35723;51.194;5.112;2023-12-07T02:39:10;4.10;99.90
49829;DHT22;35723;51.194;5.112;2023-12-07T02:41:38;4.10;99.90
49829;DHT22;35723;51.194;5.112;2023-12-07T02:44:05;4.20;99.90
49829;DHT22;35723;51.194;5.112;2023-12-07T02:46:30;4.20;99.90
49829;DHT22;35723;51.194;5.112;2023-12-07T02:48:57;4.00;99.90
49829;DHT22;35723;51.194;5.112;2023-12-07T02:51:23;4.10;99.90
49829;DHT22;35723;51.194;5.112;2023-12-07T02:53:49;4.10;99.90
49829;DHT22;35723;51.194;5.112;2023-12-07T02:56:15;4.00;99.90
49829;DHT22;35723;51.194;5.112;2023-12-07T02:58:40;4.10;99.90
49829;DHT22;35723;51.194;5.112;2023-12-07T03:01:06;4.20;99.90
49829;DHT22;35723;51.194;5.112;2023-12-07T03:03:32;4.10;99.90
49829;DHT22;35723;51.194;5.112;2023-12-07T03:05:57;4.10;99.90
49829;DHT22;35723;51.194;5.112;2023-12-07T03:08:23;4.00;99.90
49829;DHT22;35723;51.194;5.112;2023-12-07T03:10:48;4.00;99.90
49829;DHT22;35723;51.194;5.112;2023-12-07T03:13:14;4.00;99.90
49829;DHT22;35723;51.194;5.112;2023-12-07T03:15:40;4.10;99.90
49829;DHT22;35723;51.194;5.112;2023-12-07T03:18:05;4.20;99.90
49829;DHT22;35723;51.194;5.112;2023-12-07T03:20:31;4.20;99.90
49829;DHT22;35723;51.194;5.112;2023-12-07T03:22:57;4.30;99.90
49829;DHT22;35723;51.194;5.112;2023-12-07T03:25:22;4.30;99.90
49829;DHT22;35723;51.194;5.112;2023-12-07T03:27:48;4.30;99.90
49829;DHT22;35723;51.194;5.112;2023-12-07T03:30:14;4.30;99.90
49829;DHT22;35723;51.194;5.112;2023-12-07T03:32:39;4.30;99.90
49829;DHT22;35723;51.194;5.112;2023-12-07T03:35:05;4.40;99.90
49829;DHT22;35723;51.194;5.112;2023-12-07T03:37:31;4.30;99.90
49829;DHT22;35723;51.194;5.112;2023-12-07T03:39:56;4.40;99.90
49829;DHT22;35723;51.194;5.112;2023-12-07T03:42:22;4.40;99.90
49829;DHT22;35723;51.194;5.112;2023-12-07T03:44:48;4.40;99.90
49829;DHT22;35723;51.194;5.112;2023-12-07T03:47:14;4.50;99.90
49829;DHT22;35723;51.194;5.112;2023-12-07T03:49:39;4.40;99.90
49829;DHT22;35723;51.194;5.112;2023-12-07T03:52:06;4.60;99.90
49829;DHT22;35723;51.194;5.112;2023-12-07T03:54:32;4.50;99.90
49829;DHT22;35723;51.194;5.112;2023-12-07T03:56:58;4.30;99.90
49829;DHT22;35723;51.194;5.112;2023-12-07T03:59:23;4.40;99.90
49829;DHT22;35723;51.194;5.112;2023-12-07T04:01:49;4.50;99.90
49829;DHT22;35723;51.194;5.112;2023-12-07T04:04:15;4.50;99.90
49829;DHT22;35723;51.194;5.112;2023-12-07T04:06:40;4.60;99.90
49829;DHT22;35723;51.194;5.112;2023-12-07T04:09:06;4.40;99.90
49829;DHT22;35723;51.194;5.112;2023-12-07T04:11:31;4.40;99.90
49829;DHT22;35723;51.194;5.112;2023-12-07T04:13:57;4.50;99.90
49829;DHT22;35723;51.194;5.112;2023-12-07T04:16:23;4.60;99.90
49829;DHT22;35723;51.194;5.112;2023-12-07T04:18:48;4.60;99.90
49829;DHT22;35723;51.194;5.112;2023-12-07T04:21:14;4.60;99.90
49829;DHT22;35723;51.194;5.112;2023-12-07T04:23:40;4.70;99.90
49829;DHT22;35723;51.194;5.112;2023-12-07T04:26:05;4.70;99.90
49829;DHT22;35723;51.194;5.112;2023-12-07T04:28:31;4.70;99.90
49829;DHT22;35723;51.194;5.112;2023-12-07T04:30:57;4.70;99.90
49829;DHT22;35723;51.194;5.112;2023-12-07T04:33:22;4.70;99.90
49829;DHT22;35723;51.194;5.112;2023-12-07T04:35:48;4.70;99.90
49829;DHT22;35723;51.194;5.112;2023-12-07T04:38:14;4.70;99.90
49829;DHT22;35723;51.194;5.112;2023-12-07T04:40:40;4.70;99.90
49829;DHT22;35723;51.194;5.112;2023-12-07T04:43:07;4.70;99.90
49829;DHT22;35723;51.194;5.112;2023-12-07T04:45:32;4.80;99.90
49829;DHT22;35723;51.194;5.112;2023-12-07T04:47:58;4.90;99.90
49829;DHT22;35723;51.194;5.112;2023-12-07T04:50:25;4.70;99.90
49829;DHT22;35723;51.194;5.112;2023-12-07T04:52:51;4.70;99.90
49829;DHT22;35723;51.194;5.112;2023-12-07T04:55:17;4.80;99.90
49829;DHT22;35723;51.194;5.112;2023-12-07T04:57:42;4.80;99.90
49829;DHT22;35723;51.194;5.112;2023-12-07T05:00:08;4.60;99.90
49829;DHT22;35723;51.194;5.112;2023-12-07T05:02:35;4.70;99.90
49829;DHT22;35723;51.194;5.112;2023-12-07T05:05:01;4.70;99.90
49829;DHT22;35723;51.194;5.112;2023-12-07T05:07:27;4.70;99.90
49829;DHT22;35723;51.194;5.112;2023-12-07T05:09:52;4.70;99.90
49829;DHT22;35723;51.194;5.112;2023-12-07T05:12:18;4.70;99.90
49829;DHT22;35723;51.194;5.112;2023-12-07T05:14:44;4.60;99.90
49829;DHT22;35723;51.194;5.112;2023-12-07T05:17:10;4.80;99.90
49829;DHT22;35723;51.194;5.112;2023-12-07T05:19:35;4.70;99.90
49829;DHT22;35723;51.194;5.112;2023-12-07T05:22:01;4.70;99.90
49829;DHT22;35723;51.194;5.112;2023-12-07T05:24:27;4.70;99.90
49829;DHT22;35723;51.194;5.112;2023-12-07T05:26:53;4.70;99.90
49829;DHT22;35723;51.194;5.112;2023-12-07T05:29:19;4.70;99.90
49829;DHT22;35723;51.194;5.112;2023-12-07T05:31:44;4.80;99.90
49829;DHT22;35723;51.194;5.112;2023-12-07T05:34:10;4.70;99.90
49829;DHT22;35723;51.194;5.112;2023-12-07T05:36:36;4.80;99.90
49829;DHT22;35723;51.194;5.112;2023-12-07T05:39:02;4.90;99.90
49829;DHT22;35723;51.194;5.112;2023-12-07T05:41:28;4.80;99.90
49829;DHT22;35723;51.194;5.112;2023-12-07T05:43:53;4.80;99.90
49829;DHT22;35723;51.194;5.112;2023-12-07T05:46:19;4.90;99.90
49829;DHT22;35723;51.194;5.112;2023-12-07T05:48:45;4.80;99.90
49829;DHT22;35723;51.194;5.112;2023-12-07T05:51:17;4.80;99.90
49829;DHT22;35723;51.194;5.112;2023-12-07T05:53:43;4.80;99.90
49829;DHT22;35723;51.194;5.112;2023-12-07T05:56:10;4.90;99.90
49829;DHT22;35723;51.194;5.112;2023-12-07T05:58:36;4.90;99.90
49829;DHT22;35723;51.194;5.112;2023-12-07T06:01:02;4.70;99.90
49829;DHT22;35723;51.194;5.112;2023-12-07T06:03:28;4.80;99.90
49829;DHT22;35723;51.194;5.112;2023-12-07T06:05:54;4.80;99.90
49829;DHT22;35723;51.194;5.112;2023-12-07T06:08:21;4.70;99.90
49829;DHT22;35723;51.194;5.112;2023-12-07T06:10:47;4.70;99.90
49829;DHT22;35723;51.194;5.112;2023-12-07T06:13:13;4.80;99.90
49829;DHT22;35723;51.194;5.112;2023-12-07T06:15:39;4.80;99.90
49829;DHT22;35723;51.194;5.112;2023-12-07T06:18:05;4.80;99.90
49829;DHT22;35723;51.194;5.112;2023-12-07T06:20:31;5.00;99.90
49829;DHT22;35723;51.194;5.112;2023-12-07T06:22:57;4.80;99.90
49829;DHT22;35723;51.194;5.112;2023-12-07T06:25:23;4.80;99.90
49829;DHT22;35723;51.194;5.112;2023-12-07T06:27:49;4.90;99.90
49829;DHT22;35723;51.194;5.112;2023-12-07T06:30:14;4.90;99.90
49829;DHT22;35723;51.194;5.112;2023-12-07T06:32:40;4.90;99.90
49829;DHT22;35723;51.194;5.112;2023-12-07T06:35:06;5.00;99.90
49829;DHT22;35723;51.194;5.112;2023-12-07T06:37:32;4.90;99.90
49829;DHT22;35723;51.194;5.112;2023-12-07T06:39:58;4.90;99.90
49829;DHT22;35723;51.194;5.112;2023-12-07T06:42:25;4.90;99.90
49829;DHT22;35723;51.194;5.112;2023-12-07T06:44:51;4.80;99.90
49829;DHT22;35723;51.194;5.112;2023-12-07T06:47:17;4.90;99.90
49829;DHT22;35723;51.194;5.112;2023-12-07T06:49:44;4.80;99.90
49829;DHT22;35723;51.194;5.112;2023-12-07T06:52:09;4.90;99.90
49829;DHT22;35723;51.194;5.112;2023-12-07T06:54:36;4.80;99.90
49829;DHT22;35723;51.194;5.112;2023-12-07T06:57:02;4.90;99.90
49829;DHT22;35723;51.194;5.112;2023-12-07T06:59:28;4.90;99.90
49829;DHT22;35723;51.194;5.112;2023-12-07T07:01:54;4.90;99.90
49829;DHT22;35723;51.194;5.112;2023-12-07T07:04:19;4.90;99.90
49829;DHT22;35723;51.194;5.112;2023-12-07T07:06:45;4.90;99.90
49829;DHT22;35723;51.194;5.112;2023-12-07T07:09:11;4.90;99.90
49829;DHT22;35723;51.194;5.112;2023-12-07T07:11:38;4.90;99.90
49829;DHT22;35723;51.194;5.112;2023-12-07T07:14:04;5.00;99.90
49829;DHT22;35723;51.194;5.112;2023-12-07T07:16:30;4.90;99.90
49829;DHT22;35723;51.194;5.112;2023-12-07T07:18:56;4.90;99.90
49829;DHT22;35723;51.194;5.112;2023-12-07T07:21:22;4.90;99.90
49829;DHT22;35723;51.194;5.112;2023-12-07T07:23:47;4.90;99.90
49829;DHT22;35723;51.194;5.112;2023-12-07T07:26:13;4.90;99.90
49829;DHT22;35723;51.194;5.112;2023-12-07T07:28:43;4.90;99.90
49829;DHT22;35723;51.194;5.112;2023-12-07T07:31:08;4.90;99.90
49829;DHT22;35723;51.194;5.112;2023-12-07T07:33:34;4.80;99.90
49829;DHT22;35723;51.194;5.112;2023-12-07T07:36:00;4.80;99.90
49829;DHT22;35723;51.194;5.112;2023-12-07T07:38:26;4.80;99.90
49829;DHT22;35723;51.194;5.112;2023-12-07T07:40:53;4.90;99.90
49829;DHT22;35723;51.194;5.112;2023-12-07T07:43:18;4.90;99.90
49829;DHT22;35723;51.194;5.112;2023-12-07T07:45:44;4.90;99.90
49829;DHT22;35723;51.194;5.112;2023-12-07T07:48:11;4.90;99.90
49829;DHT22;35723;51.194;5.112;2023-12-07T07:50:37;5.00;99.90
49829;DHT22;35723;51.194;5.112;2023-12-07T07:53:03;5.00;99.90
49829;DHT22;35723;51.194;5.112;2023-12-07T07:55:30;5.00;99.90
49829;DHT22;35723;51.194;5.112;2023-12-07T07:57:56;5.00;99.90
49829;DHT22;35723;51.194;5.112;2023-12-07T08:00:21;5.00;99.90
49829;DHT22;35723;51.194;5.112;2023-12-07T08:02:47;5.10;99.90
49829;DHT22;35723;51.194;5.112;2023-12-07T08:05:13;5.00;99.90
49829;DHT22;35723;51.194;5.112;2023-12-07T08:07:40;5.00;99.90
49829;DHT22;35723;51.194;5.112;2023-12-07T08:10:06;4.90;99.90
49829;DHT22;35723;51.194;5.112;2023-12-07T08:12:33;5.00;99.90
49829;DHT22;35723;51.194;5.112;2023-12-07T08:14:58;5.00;99.90
49829;DHT22;35723;51.194;5.112;2023-12-07T08:17:24;5.00;99.90
49829;DHT22;35723;51.194;5.112;2023-12-07T08:19:52;5.10;99.90
49829;DHT22;35723;51.194;5.112;2023-12-07T08:22:17;5.00;99.90
49829;DHT22;35723;51.194;5.112;2023-12-07T08:24:43;5.10;99.90
49829;DHT22;35723;51.194;5.112;2023-12-07T08:27:08;5.10;99.90
49829;DHT22;35723;51.194;5.112;2023-12-07T08:29:34;5.10;99.90
49829;DHT22;35723;51.194;5.112;2023-12-07T08:32:00;5.10;99.90
49829;DHT22;35723;51.194;5.112;2023-12-07T08:34:26;5.30;99.90
49829;DHT22;35723;51.194;5.112;2023-12-07T08:36:51;5.10;99.90
49829;DHT22;35723;51.194;5.112;2023-12-07T08:39:17;5.10;99.90
49829;DHT22;35723;51.194;5.112;2023-12-07T08:41:43;5.10;99.90
49829;DHT22;35723;51.194;5.112;2023-12-07T08:44:08;5.10;99.90
49829;DHT22;35723;51.194;5.112;2023-12-07T08:46:34;5.10;99.90
49829;DHT22;35723;51.194;5.112;2023-12-07T08:49:01;5.10;99.90
49829;DHT22;35723;51.194;5.112;2023-12-07T08:51:28;5.10;99.90
49829;DHT22;35723;51.194;5.112;2023-12-07T08:53:53;5.10;99.90
49829;DHT22;35723;51.194;5.112;2023-12-07T08:56:20;5.10;99.90
49829;DHT22;35723;51.194;5.112;2023-12-07T08:58:45;5.10;99.90
49829;DHT22;35723;51.194;5.112;2023-12-07T09:01:11;5.10;99.90
49829;DHT22;35723;51.194;5.112;2023-12-07T09:03:37;5.10;99.90
49829;DHT22;35723;51.194;5.112;2023-12-07T09:06:03;5.10;99.90
49829;DHT22;35723;51.194;5.112;2023-12-07T09:08:30;5.20;99.90
49829;DHT22;35723;51.194;5.112;2023-12-07T09:10:56;5.40;99.90
49829;DHT22;35723;51.194;5.112;2023-12-07T09:13:22;5.40;99.90
49829;DHT22;35723;51.194;5.112;2023-12-07T09:15:47;5.40;99.90
49829;DHT22;35723;51.194;5.112;2023-12-07T09:18:13;5.50;99.90
49829;DHT22;35723;51.194;5.112;2023-12-07T09:20:42;5.60;99.90
49829;DHT22;35723;51.194;5.112;2023-12-07T09:23:13;5.50;99.90
49829;DHT22;35723;51.194;5.112;2023-12-07T09:25:40;5.50;99.90
49829;DHT22;35723;51.194;5.112;2023-12-07T09:28:06;5.70;99.90
49829;DHT22;35723;51.194;5.112;2023-12-07T09:30:32;5.70;99.90
49829;DHT22;35723;51.194;5.112;2023-12-07T09:32:59;5.60;99.90
49829;DHT22;35723;51.194;5.112;2023-12-07T09:35:25;5.80;99.90
49829;DHT22;35723;51.194;5.112;2023-12-07T09:37:50;5.90;99.90
49829;DHT22;35723;51.194;5.112;2023-12-07T09:40:21;5.90;99.90
49829;DHT22;35723;51.194;5.112;2023-12-07T09:42:47;6.00;99.90
49829;DHT22;35723;51.194;5.112;2023-12-07T09:45:14;6.10;99.90
49829;DHT22;35723;51.194;5.112;2023-12-07T09:47:42;6.10;99.90
49829;DHT22;35723;51.194;5.112;2023-12-07T09:50:08;6.20;99.90
49829;DHT22;35723;51.194;5.112;2023-12-07T09:52:35;6.30;99.90
49829;DHT22;35723;51.194;5.112;2023-12-07T09:55:04;6.30;99.90
49829;DHT22;35723;51.194;5.112;2023-12-07T09:57:31;6.40;99.90
49829;DHT22;35723;51.194;5.112;2023-12-07T09:59:57;6.50;99.90
49829;DHT22;35723;51.194;5.112;2023-12-07T10:02:23;6.50;99.90
49829;DHT22;35723;51.194;5.112;2023-12-07T10:05:02;6.60;99.90
49829;DHT22;35723;51.194;5.112;2023-12-07T10:07:39;6.60;99.90
49829;DHT22;35723;51.194;5.112;2023-12-07T10:10:05;6.60;99.90
49829;DHT22;35723;51.194;5.112;2023-12-07T10:12:31;6.70;99.90
49829;DHT22;35723;51.194;5.112;2023-12-07T10:14:59;6.70;99.90
49829;DHT22;35723;51.194;5.112;2023-12-07T10:17:52;6.70;99.90
49829;DHT22;35723;51.194;5.112;2023-12-07T10:20:19;6.60;99.90
49829;DHT22;35723;51.194;5.112;2023-12-07T10:22:49;6.70;99.90
49829;DHT22;35723;51.194;5.112;2023-12-07T10:25:26;6.80;99.90
49829;DHT22;35723;51.194;5.112;2023-12-07T10:27:52;6.90;99.90
49829;DHT22;35723;51.194;5.112;2023-12-07T10:30:17;6.80;99.90
49829;DHT22;35723;51.194;5.112;2023-12-07T10:32:50;6.90;99.90
49829;DHT22;35723;51.194;5.112;2023-12-07T10:35:17;6.80;99.90
49829;DHT22;35723;51.194;5.112;2023-12-07T10:37:43;6.90;99.90
49829;DHT22;35723;51.194;5.112;2023-12-07T10:40:09;6.90;99.90
49829;DHT22;35723;51.194;5.112;2023-12-07T10:42:36;6.90;99.90
49829;DHT22;35723;51.194;5.112;2023-12-07T10:45:06;7.00;99.90
49829;DHT22;35723;51.194;5.112;2023-12-07T10:47:37;7.00;99.90
49829;DHT22;35723;51.194;5.112;2023-12-07T10:50:06;7.00;99.90
49829;DHT22;35723;51.194;5.112;2023-12-07T10:52:37;7.00;99.90
49829;DHT22;35723;51.194;5.112;2023-12-07T10:55:10;7.00;99.90
49829;DHT22;35723;51.194;5.112;2023-12-07T10:57:38;7.10;99.90
49829;DHT22;35723;51.194;5.112;2023-12-07T11:00:07;7.10;99.90
49829;DHT22;35723;51.194;5.112;2023-12-07T11:02:34;7.20;99.90
49829;DHT22;35723;51.194;5.112;2023-12-07T11:05:01;7.20;99.90
49829;DHT22;35723;51.194;5.112;2023-12-07T11:07:33;7.20;99.90
49829;DHT22;35723;51.194;5.112;2023-12-07T11:10:07;7.20;99.90
49829;DHT22;35723;51.194;5.112;2023-12-07T11:12:50;7.20;99.90
49829;DHT22;35723;51.194;5.112;2023-12-07T11:15:18;7.30;99.90
49829;DHT22;35723;51.194;5.112;2023-12-07T11:17:50;7.30;99.90
49829;DHT22;35723;51.194;5.112;2023-12-07T11:20:20;7.30;99.90
49829;DHT22;35723;51.194;5.112;2023-12-07T11:22:46;7.30;99.90
49829;DHT22;35723;51.194;5.112;2023-12-07T11:25:15;7.30;99.90
49829;DHT22;35723;51.194;5.112;2023-12-07T11:27:40;7.40;99.90
49829;DHT22;35723;51.194;5.112;2023-12-07T11:30:13;7.40;99.90
49829;DHT22;35723;51.194;5.112;2023-12-07T11:32:39;7.50;99.90
49829;DHT22;35723;51.194;5.112;2023-12-07T11:35:05;7.50;99.90
49829;DHT22;35723;51.194;5.112;2023-12-07T11:38:09;7.60;99.90
49829;DHT22;35723;51.194;5.112;2023-12-07T11:40:40;7.60;99.90
49829;DHT22;35723;51.194;5.112;2023-12-07T11:43:06;7.60;99.90
49829;DHT22;35723;51.194;5.112;2023-12-07T11:45:38;7.70;99.90
49829;DHT22;35723;51.194;5.112;2023-12-07T11:48:12;7.70;99.90
49829;DHT22;35723;51.194;5.112;2023-12-07T11:50:54;7.80;99.90
49829;DHT22;35723;51.194;5.112;2023-12-07T11:53:25;7.80;99.90
49829;DHT22;35723;51.194;5.112;2023-12-07T11:55:51;7.80;99.90
49829;DHT22;35723;51.194;5.112;2023-12-07T11:58:17;7.80;99.90
49829;DHT22;35723;51.194;5.112;2023-12-07T12:00:44;7.90;99.90
49829;DHT22;35723;51.194;5.112;2023-12-07T12:03:13;7.90;99.90
49829;DHT22;35723;51.194;5.112;2023-12-07T12:05:38;7.90;99.90
49829;DHT22;35723;51.194;5.112;2023-12-07T12:08:06;7.90;99.90
49829;DHT22;35723;51.194;5.112;2023-12-07T12:10:31;7.90;99.90
49829;DHT22;35723;51.194;5.112;2023-12-07T12:13:00;7.90;99.90
49829;DHT22;35723;51.194;5.112;2023-12-07T12:15:26;7.90;99.90
49829;DHT22;35723;51.194;5.112;2023-12-07T12:17:52;8.00;99.90
49829;DHT22;35723;51.194;5.112;2023-12-07T12:20:19;8.00;99.90
49829;DHT22;35723;51.194;5.112;2023-12-07T12:22:44;8.00;99.90
49829;DHT22;35723;51.194;5.112;2023-12-07T12:25:10;8.00;99.90
49829;DHT22;35723;51.194;5.112;2023-12-07T12:27:36;8.00;99.90
49829;DHT22;35723;51.194;5.112;2023-12-07T12:30:02;8.00;99.90
49829;DHT22;35723;51.194;5.112;2023-12-07T12:32:43;8.00;99.90
49829;DHT22;35723;51.194;5.112;2023-12-07T12:35:09;8.00;99.90
49829;DHT22;35723;51.194;5.112;2023-12-07T12:37:34;8.00;99.90
49829;DHT22;35723;51.194;5.112;2023-12-07T12:40:27;8.00;99.90
49829;DHT22;35723;51.194;5.112;2023-12-07T12:42:52;8.00;99.90
49829;DHT22;35723;51.194;5.112;2023-12-07T12:45:19;8.00;99.90
49829;DHT22;35723;51.194;5.112;2023-12-07T12:47:48;7.40;99.90
49829;DHT22;35723;51.194;5.112;2023-12-07T12:50:36;6.80;99.90
49829;DHT22;35723;51.194;5.112;2023-12-07T12:53:04;6.90;99.90
49829;DHT22;35723;51.194;5.112;2023-12-07T12:55:35;7.20;99.90
49829;DHT22;35723;51.194;5.112;2023-12-07T12:58:02;7.30;99.90
49829;DHT22;35723;51.194;5.112;2023-12-07T13:00:30;7.40;99.90
49829;DHT22;35723;51.194;5.112;2023-12-07T13:02:57;7.50;99.90
49829;DHT22;35723;51.194;5.112;2023-12-07T13:05:23;7.60;99.90
49829;DHT22;35723;51.194;5.112;2023-12-07T13:07:49;7.60;99.90
49829;DHT22;35723;51.194;5.112;2023-12-07T13:10:17;7.80;99.90
49829;DHT22;35723;51.194;5.112;2023-12-07T13:12:46;7.80;99.90
49829;DHT22;35723;51.194;5.112;2023-12-07T13:15:12;7.70;99.90
49829;DHT22;35723;51.194;5.112;2023-12-07T13:17:39;7.60;99.90
49829;DHT22;35723;51.194;5.112;2023-12-07T13:20:07;7.70;99.90
49829;DHT22;35723;51.194;5.112;2023-12-07T13:22:38;7.80;99.90
49829;DHT22;35723;51.194;5.112;2023-12-07T13:25:05;7.80;99.90
49829;DHT22;35723;51.194;5.112;2023-12-07T13:27:35;7.80;99.90
49829;DHT22;35723;51.194;5.112;2023-12-07T13:30:02;7.70;99.90
49829;DHT22;35723;51.194;5.112;2023-12-07T13:32:31;7.70;99.90
49829;DHT22;35723;51.194;5.112;2023-12-07T13:34:58;7.60;99.90
49829;DHT22;35723;51.194;5.112;2023-12-07T13:37:24;7.70;99.90
49829;DHT22;35723;51.194;5.112;2023-12-07T13:39:50;7.80;99.90
49829;DHT22;35723;51.194;5.112;2023-12-07T13:42:21;7.60;99.90
49829;DHT22;35723;51.194;5.112;2023-12-07T13:44:47;7.60;99.90
49829;DHT22;35723;51.194;5.112;2023-12-07T13:47:17;7.80;99.90
49829;DHT22;35723;51.194;5.112;2023-12-07T13:49:43;7.70;99.90
49829;DHT22;35723;51.194;5.112;2023-12-07T13:52:09;7.70;99.90
49829;DHT22;35723;51.194;5.112;2023-12-07T13:54:38;7.50;99.90
49829;DHT22;35723;51.194;5.112;2023-12-07T13:57:04;7.60;99.90
49829;DHT22;35723;51.194;5.112;2023-12-07T13:59:30;7.60;99.90
49829;DHT22;35723;51.194;5.112;2023-12-07T14:01:56;7.70;99.90
49829;DHT22;35723;51.194;5.112;2023-12-07T14:04:22;7.70;99.90
49829;DHT22;35723;51.194;5.112;2023-12-07T14:06:48;7.90;99.90
49829;DHT22;35723;51.194;5.112;2023-12-07T14:09:14;7.70;99.90
49829;DHT22;35723;51.194;5.112;2023-12-07T14:11:40;7.70;99.90
49829;DHT22;35723;51.194;5.112;2023-12-07T14:14:08;7.60;99.90
49829;DHT22;35723;51.194;5.112;2023-12-07T14:16:34;7.60;99.90
49829;DHT22;35723;51.194;5.112;2023-12-07T14:19:00;7.60;99.90
49829;DHT22;35723;51.194;5.112;2023-12-07T14:21:26;6.60;99.90
49829;DHT22;35723;51.194;5.112;2023-12-07T14:23:51;5.90;99.90
49829;DHT22;35723;51.194;5.112;2023-12-07T14:26:19;6.10;99.90
49829;DHT22;35723;51.194;5.112;2023-12-07T14:28:45;6.40;99.90
49829;DHT22;35723;51.194;5.112;2023-12-07T14:31:10;6.70;99.90
49829;DHT22;35723;51.194;5.112;2023-12-07T14:33:42;7.00;99.90
49829;DHT22;35723;51.194;5.112;2023-12-07T14:36:09;7.20;99.90
49829;DHT22;35723;51.194;5.112;2023-12-07T14:38:35;7.40;99.90
49829;DHT22;35723;51.194;5.112;2023-12-07T14:41:01;7.40;99.90
49829;DHT22;35723;51.194;5.112;2023-12-07T14:43:26;7.50;99.90
49829;DHT22;35723;51.194;5.112;2023-12-07T14:45:52;7.60;99.90
49829;DHT22;35723;51.194;5.112;2023-12-07T14:48:18;7.60;99.90
49829;DHT22;35723;51.194;5.112;2023-12-07T14:50:43;7.70;99.90
49829;DHT22;35723;51.194;5.112;2023-12-07T14:53:09;7.70;99.90
49829;DHT22;35723;51.194;5.112;2023-12-07T14:55:36;7.80;99.90
49829;DHT22;35723;51.194;5.112;2023-12-07T14:58:01;7.80;99.90
49829;DHT22;35723;51.194;5.112;2023-12-07T15:00:27;7.90;99.90
49829;DHT22;35723;51.194;5.112;2023-12-07T15:02:54;7.80;99.90
49829;DHT22;35723;51.194;5.112;2023-12-07T15:05:19;7.90;99.90
49829;DHT22;35723;51.194;5.112;2023-12-07T15:07:45;7.90;99.90
49829;DHT22;35723;51.194;5.112;2023-12-07T15:10:11;7.90;99.90
49829;DHT22;35723;51.194;5.112;2023-12-07T15:12:36;7.80;99.90
49829;DHT22;35723;51.194;5.112;2023-12-07T15:15:02;7.90;99.90
49829;DHT22;35723;51.194;5.112;2023-12-07T15:17:31;7.90;99.90
49829;DHT22;35723;51.194;5.112;2023-12-07T15:19:57;7.90;99.90
49829;DHT22;35723;51.194;5.112;2023-12-07T15:22:23;7.80;99.90
49829;DHT22;35723;51.194;5.112;2023-12-07T15:24:48;7.80;99.90
49829;DHT22;35723;51.194;5.112;2023-12-07T15:27:14;7.80;99.90
49829;DHT22;35723;51.194;5.112;2023-12-07T15:29:39;7.80;99.90
49829;DHT22;35723;51.194;5.112;2023-12-07T15:32:06;7.80;99.90
49829;DHT22;35723;51.194;5.112;2023-12-07T15:34:32;7.80;99.90
49829;DHT22;35723;51.194;5.112;2023-12-07T15:36:58;7.70;99.90
49829;DHT22;35723;51.194;5.112;2023-12-07T15:39:24;7.70;99.90
49829;DHT22;35723;51.194;5.112;2023-12-07T15:41:49;7.70;99.90
49829;DHT22;35723;51.194;5.112;2023-12-07T15:44:15;7.70;99.90
49829;DHT22;35723;51.194;5.112;2023-12-07T15:46:40;7.60;99.90